KCHA/CHA METAR and TAF weather

Enter ICAO airport designator
Station Type Date Time Source
KCHA METAR 2019/04/26 03:53 UTC NOAA

KCHA 260353Z 17004KT 10SM FEW043 SCT080 BKN200 OVC250 18/13 A2979 RMK AO2 SLP082 LAS


Station Type Date Time Source
KCHA Decoded METAR 2019/04/26 03:53 UTC NOAA

LOVELL FIELD, TN, United States (KCHA) 35-02N 085-12W 210M
Apr 25, 2019 - 11:53 PM EDT / 2019.04.26 0353 UTC
Wind: from the S (170 degrees) at 5 MPH (4 KT):0
Visibility: 10 mile(s):0
Sky conditions: overcast
Temperature: 64.0 F (17.8 C)
Dew Point: 55.9 F (13.3 C)
Relative Humidity: 74%
Pressure (altimeter): 29.79 in. Hg (1008 hPa)
ob: KCHA 260353Z 17004KT 10SM FEW043 SCT080 BKN200 OVC250 18/13 A2979 RMK AO2 SLP082 LAST T01780133
cycle: 4

Station Type Date Time Source
KCHA TAF 2019/04/25 18:24 UTC NOAA

TAF KCHA 251722Z 2518/2618 19010KT P6SM SCT025 BKN040 BKN120
FM252100 19010KT P6SM VCTS BKN035CB OVC040
FM260100 18010KT 5SM -SHRA VCTS BKN020CB OVC040
FM260600 21010KT 5SM -SHRA BKN010 OVC025
FM261000 25008KT P6SM VCSH SCT010 BKN025
FM261600 32012G20KT P6SM BKN015

Example: see airport list